Time;durP1;ratioP1;P1;durP2;ratioP2;P2;SDS_P1;SDS_P2;PMS_P1;PMS_P2;Temp;Humidity;BMP_temperature;BMP_pressure;BME280_temperature;BME280_humidity;BME280_pressure;Samples;Min_cycle;Max_cycle;Signal;HPM_P1;HPM_P2
2023/11/16 00:01:41;;;;;;;4.82;2.00;;;18.00;59.60;;;;;;6154353;23;20160;-84
2023/11/16 00:04:07;;;;;;;3.83;1.70;;;18.00;59.60;;;;;;6153020;23;20214;-84
2023/11/16 00:06:32;;;;;;;4.35;1.73;;;18.00;59.60;;;;;;6153848;23;20131;-84
2023/11/16 00:08:59;;;;;;;3.03;1.73;;;18.00;59.50;;;;;;6154995;23;20790;-85
2023/11/16 00:13:51;;;;;;;3.95;1.40;;;18.00;59.50;;;;;;6155298;23;20231;-84
2023/11/16 00:16:19;;;;;;;2.28;1.45;;;18.00;59.60;;;;;;6154950;23;20136;-84
2023/11/16 00:18:46;;;;;;;2.35;1.42;;;18.00;59.50;;;;;;6153945;23;20218;-84
2023/11/16 00:21:14;;;;;;;3.00;1.67;;;18.00;59.60;;;;;;6153265;23;20157;-84
2023/11/16 00:23:41;;;;;;;3.08;1.33;;;18.00;59.50;;;;;;6128565;23;20155;-84
2023/11/16 00:26:11;;;;;;;3.08;1.50;;;18.00;59.70;;;;;;6127633;23;20159;-84
2023/11/16 00:28:37;;;;;;;2.47;1.70;;;18.00;59.60;;;;;;6153668;23;20132;-85
2023/11/16 00:31:04;;;;;;;4.57;1.92;;;18.00;59.60;;;;;;6152903;23;20566;-84
2023/11/16 00:33:29;;;;;;;2.38;1.67;;;18.00;59.50;;;;;;6140273;23;20205;-83
2023/11/16 00:36:01;;;;;;;7.05;2.13;;;18.00;59.70;;;;;;6184930;23;20293;-84
2023/11/16 00:38:27;;;;;;;1.90;1.40;;;18.00;59.80;;;;;;6181886;23;20513;-83
2023/11/16 00:40:55;;;;;;;3.38;1.73;;;17.90;59.70;;;;;;6182005;23;20131;-83
2023/11/16 00:43:21;;;;;;;4.00;1.58;;;17.90;59.80;;;;;;6158894;23;20266;-84
2023/11/16 00:45:47;;;;;;;2.40;1.40;;;17.90;59.80;;;;;;6184696;23;20167;-83
2023/11/16 00:48:12;;;;;;;5.90;1.85;;;18.00;59.60;;;;;;6183510;23;20131;-83
2023/11/16 00:50:38;;;;;;;3.85;1.40;;;18.00;59.60;;;;;;6183235;23;20214;-84
2023/11/16 00:53:05;;;;;;;2.85;1.75;;;18.00;59.70;;;;;;6180712;23;20502;-84
2023/11/16 00:55:31;;;;;;;3.95;1.50;;;17.90;59.60;;;;;;6180254;23;20184;-84
2023/11/16 00:57:57;;;;;;;2.17;1.60;;;17.90;59.50;;;;;;6157902;23;20150;-83
2023/11/16 01:00:26;;;;;;;3.63;1.20;;;17.90;59.60;;;;;;6182837;23;20130;-84
2023/11/16 01:02:52;;;;;;;2.35;1.35;;;18.00;59.80;;;;;;6182068;23;20155;-84
2023/11/16 01:05:18;;;;;;;2.25;1.38;;;18.00;59.70;;;;;;6185303;23;20194;-83
2023/11/16 01:07:44;;;;;;;4.80;1.58;;;17.90;59.80;;;;;;6183395;23;20136;-84
2023/11/16 01:10:15;;;;;;;1.98;1.40;;;17.90;59.80;;;;;;6182147;23;20198;-83
2023/11/16 01:12:43;;;;;;;3.67;1.48;;;17.90;59.70;;;;;;6183614;23;20163;-84
2023/11/16 01:15:11;;;;;;;2.85;1.80;;;17.90;59.80;;;;;;6182171;23;20655;-83
2023/11/16 01:17:38;;;;;;;3.22;1.50;;;17.80;59.80;;;;;;6181802;23;20135;-84
2023/11/16 01:20:07;;;;;;;2.38;1.63;;;17.90;59.90;;;;;;6134558;23;20170;-84
2023/11/16 01:22:40;;;;;;;5.38;1.48;;;17.80;59.80;;;;;;6184161;23;20135;-84
2023/11/16 01:25:15;;;;;;;3.47;1.27;;;17.90;59.80;;;;;;6183693;23;20198;-84
2023/11/16 01:27:44;;;;;;;1.98;1.33;;;17.90;59.90;;;;;;6160040;23;20505;-84
2023/11/16 01:30:12;;;;;;;3.75;1.60;;;17.90;59.80;;;;;;6159533;23;20150;-84
2023/11/16 01:32:38;;;;;;;3.20;1.63;;;17.90;59.80;;;;;;6158281;23;20166;-84
2023/11/16 01:35:05;;;;;;;2.70;1.70;;;17.90;59.80;;;;;;6157626;23;20154;-84
2023/11/16 01:37:31;;;;;;;3.15;1.55;;;17.90;59.80;;;;;;6184893;23;20226;-85
2023/11/16 01:39:57;;;;;;;3.05;1.50;;;17.90;59.80;;;;;;6183344;23;20230;-84
2023/11/16 01:42:22;;;;;;;2.90;1.60;;;17.90;60.00;;;;;;6136133;23;20159;-83
2023/11/16 01:44:48;;;;;;;3.22;1.50;;;17.90;59.80;;;;;;6159626;23;20135;-83
2023/11/16 01:47:14;;;;;;;2.63;1.63;;;17.90;60.00;;;;;;6183749;23;20217;-83
2023/11/16 01:49:42;;;;;;;3.88;1.40;;;17.90;59.80;;;;;;6183723;23;20131;-84
2023/11/16 01:52:09;;;;;;;3.28;1.25;;;17.90;59.90;;;;;;6184755;23;20264;-83
2023/11/16 01:54:35;;;;;;;3.08;1.40;;;17.90;59.80;;;;;;6183751;23;20158;-83
2023/11/16 01:57:03;;;;;;;2.13;1.50;;;17.80;59.90;;;;;;6209692;23;20155;-84
2023/11/16 01:59:29;;;;;;;1.90;1.60;;;17.90;59.90;;;;;;6142841;23;20587;-83
2023/11/16 02:01:55;;;;;;;3.85;1.60;;;17.80;59.90;;;;;;6155512;23;20144;-84
2023/11/16 02:04:25;;;;;;;3.03;1.45;;;17.90;59.90;;;;;;6155514;23;20131;-83
2023/11/16 02:06:54;;;;;;;4.00;1.58;;;17.80;59.90;;;;;;6130007;23;20239;-83
2023/11/16 02:09:21;;;;;;;1.55;1.45;;;17.80;59.90;;;;;;6131080;23;20170;-83
2023/11/16 02:11:46;;;;;;;1.92;1.50;;;17.80;59.80;;;;;;6154267;23;20238;-83
2023/11/16 02:14:12;;;;;;;2.75;1.92;;;17.80;59.90;;;;;;6153384;23;20641;-84
2023/11/16 02:16:38;;;;;;;2.33;1.38;;;17.90;60.00;;;;;;6128541;23;20163;-84
2023/11/16 02:19:13;;;;;;;1.85;1.17;;;17.80;60.00;;;;;;6154268;23;20131;-83
2023/11/16 02:21:41;;;;;;;2.88;1.75;;;17.80;59.90;;;;;;6153543;23;20591;-83
2023/11/16 02:24:08;;;;;;;3.83;1.70;;;17.80;59.90;;;;;;6129669;23;20200;-84
2023/11/16 02:26:34;;;;;;;3.22;1.50;;;17.80;59.90;;;;;;6155795;23;20132;-83
2023/11/16 02:28:59;;;;;;;3.85;1.50;;;17.80;59.80;;;;;;6155607;23;20205;-84
2023/11/16 02:31:25;;;;;;;2.35;1.42;;;17.90;59.80;;;;;;6147846;23;20202;-84
2023/11/16 02:33:51;;;;;;;2.78;1.80;;;17.80;59.90;;;;;;6184789;23;20142;-83
2023/11/16 02:36:17;;;;;;;2.72;1.50;;;17.80;59.90;;;;;;6159756;23;20513;-84
2023/11/16 02:38:43;;;;;;;3.63;1.58;;;17.80;59.90;;;;;;6182262;23;20127;-83
2023/11/16 02:41:09;;;;;;;2.80;1.55;;;17.80;60.00;;;;;;6184185;23;20147;-83
2023/11/16 02:43:34;;;;;;;2.70;1.17;;;17.80;60.00;;;;;;6132935;23;20229;-84
2023/11/16 02:46:03;;;;;;;3.17;1.45;;;17.90;60.00;;;;;;6159490;23;20652;-84
2023/11/16 02:48:29;;;;;;;3.08;1.33;;;17.80;59.80;;;;;;6159043;23;20146;-84
2023/11/16 02:50:54;;;;;;;2.25;1.58;;;17.80;59.90;;;;;;6183951;23;20555;-84
2023/11/16 02:53:22;;;;;;;2.20;1.50;;;17.80;60.00;;;;;;6158724;23;20182;-84
2023/11/16 02:55:51;;;;;;;2.03;1.50;;;17.80;59.90;;;;;;6158905;23;20217;-83
2023/11/16 02:58:19;;;;;;;2.70;1.65;;;17.80;60.00;;;;;;6182655;23;20178;-83
2023/11/16 03:00:44;;;;;;;1.73;1.15;;;17.80;59.90;;;;;;6186475;23;20187;-83
2023/11/16 03:03:10;;;;;;;1.55;1.38;;;17.80;60.00;;;;;;6208138;23;20155;-83
2023/11/16 03:05:36;;;;;;;3.88;1.40;;;17.80;59.90;;;;;;6207731;23;20153;-83
2023/11/16 03:08:02;;;;;;;2.05;1.45;;;17.80;60.10;;;;;;6183020;23;20570;-84
2023/11/16 03:10:28;;;;;;;2.38;1.63;;;17.80;59.90;;;;;;6183639;23;20594;-83
2023/11/16 03:12:56;;;;;;;1.77;1.45;;;17.80;60.00;;;;;;6182569;23;20232;-83
2023/11/16 03:15:22;;;;;;;2.13;1.42;;;17.80;59.90;;;;;;6158230;23;20150;-84
2023/11/16 03:17:48;;;;;;;2.28;1.45;;;17.80;59.90;;;;;;6164659;23;20260;-83
2023/11/16 03:20:16;;;;;;;3.08;1.60;;;17.80;60.00;;;;;;6152228;23;20140;-84
2023/11/16 03:22:42;;;;;;;2.20;1.20;;;17.80;60.00;;;;;;6129539;23;20183;-84
2023/11/16 03:25:08;;;;;;;3.63;1.80;;;17.80;60.00;;;;;;6128977;23;20154;-84
2023/11/16 03:27:34;;;;;;;3.05;1.35;;;17.80;59.90;;;;;;6140978;23;20340;-83
2023/11/16 03:30:00;;;;;;;3.35;1.40;;;17.80;60.10;;;;;;6183318;23;20154;-84
2023/11/16 03:32:25;;;;;;;2.55;1.55;;;17.80;60.00;;;;;;6157554;23;20178;-84
2023/11/16 03:34:52;;;;;;;2.30;1.67;;;17.80;59.90;;;;;;6156942;23;20141;-83
2023/11/16 03:37:19;;;;;;;2.08;1.20;;;17.80;60.00;;;;;;6183530;23;20131;-83
2023/11/16 03:39:45;;;;;;;3.58;1.50;;;17.80;59.90;;;;;;6158176;23;20127;-83
2023/11/16 03:42:11;;;;;;;3.55;1.52;;;17.80;60.10;;;;;;6182640;23;20890;-83
2023/11/16 03:44:37;;;;;;;2.30;1.40;;;17.80;60.10;;;;;;6183924;23;20130;-83
2023/11/16 03:47:04;;;;;;;2.65;1.50;;;17.80;60.00;;;;;;6167096;23;20262;-83
2023/11/16 03:49:29;;;;;;;2.88;1.50;;;17.80;60.10;;;;;;6154176;23;20147;-85
2023/11/16 03:51:57;;;;;;;3.83;1.55;;;17.80;60.30;;;;;;6154987;23;20221;-84
2023/11/16 03:54:23;;;;;;;6.28;1.58;;;17.80;60.10;;;;;;6152743;23;20190;-83
2023/11/16 03:56:50;;;;;;;1.83;1.38;;;17.80;60.30;;;;;;6153577;23;20150;-84
2023/11/16 03:59:17;;;;;;;1.98;1.42;;;17.70;60.10;;;;;;6156134;23;20143;-84
2023/11/16 04:01:44;;;;;;;2.85;1.48;;;17.70;60.20;;;;;;6156007;23;20589;-83
2023/11/16 04:04:10;;;;;;;2.75;1.60;;;17.70;60.10;;;;;;6154817;23;20519;-84
2023/11/16 04:06:37;;;;;;;1.88;1.40;;;17.70;60.20;;;;;;6128782;23;20575;-84
2023/11/16 04:09:05;;;;;;;2.25;1.50;;;17.70;59.90;;;;;;6153468;23;20142;-84
2023/11/16 04:11:31;;;;;;;1.75;1.10;;;17.70;59.90;;;;;;6130135;23;20225;-83
2023/11/16 04:13:58;;;;;;;3.53;1.40;;;17.70;60.00;;;;;;6153536;23;20215;-83
2023/11/16 04:16:24;;;;;;;3.65;1.40;;;17.80;60.10;;;;;;6153679;23;20132;-83
2023/11/16 04:18:51;;;;;;;4.43;1.40;;;17.80;60.00;;;;;;6156302;23;20136;-83
2023/11/16 04:21:20;;;;;;;2.38;1.60;;;17.80;60.20;;;;;;6130182;23;20154;-84
2023/11/16 04:26:13;;;;;;;2.05;1.30;;;17.70;60.00;;;;;;6151527;23;20207;-84
2023/11/16 04:28:42;;;;;;;2.13;1.40;;;17.70;60.10;;;;;;6152099;23;20135;-84
2023/11/16 04:31:09;;;;;;;3.50;1.63;;;17.80;60.10;;;;;;6151721;23;20768;-84
2023/11/16 04:33:37;;;;;;;2.17;1.27;;;17.70;60.30;;;;;;6154282;23;20138;-83
2023/11/16 04:36:05;;;;;;;2.97;1.40;;;17.70;60.10;;;;;;6152036;23;20444;-84
2023/11/16 04:38:31;;;;;;;3.85;1.50;;;17.80;60.30;;;;;;6128315;23;20147;-83
2023/11/16 04:43:24;;;;;;;2.20;1.30;;;17.70;60.00;;;;;;6153916;23;20545;-83
2023/11/16 04:45:52;;;;;;;2.60;1.63;;;17.70;60.10;;;;;;6152996;23;20147;-84
2023/11/16 04:48:19;;;;;;;2.95;1.40;;;17.70;60.00;;;;;;6129316;23;20148;-84
2023/11/16 04:50:45;;;;;;;1.52;1.20;;;17.70;60.20;;;;;;6152069;23;20132;-84
2023/11/16 04:53:11;;;;;;;3.08;1.33;;;17.60;60.10;;;;;;6128561;23;20182;-84
2023/11/16 04:55:36;;;;;;;2.58;1.48;;;17.70;60.30;;;;;;6151702;23;20144;-84
2023/11/16 04:58:02;;;;;;;2.83;1.52;;;17.70;60.20;;;;;;6150349;23;20163;-84
2023/11/16 05:00:28;;;;;;;2.08;1.50;;;17.70;60.30;;;;;;6128860;23;20150;-83
2023/11/16 05:02:54;;;;;;;2.20;1.30;;;17.60;60.10;;;;;;6126861;23;20151;-84
2023/11/16 05:05:19;;;;;;;2.47;1.50;;;17.70;60.30;;;;;;6153385;23;20981;-83
2023/11/16 05:07:45;;;;;;;1.67;1.27;;;17.70;60.10;;;;;;6128282;23;20460;-83
2023/11/16 05:10:11;;;;;;;1.42;1.20;;;17.70;60.10;;;;;;6153224;23;20542;-83
2023/11/16 05:12:39;;;;;;;1.83;1.40;;;17.70;60.10;;;;;;6155759;23;20663;-84
2023/11/16 05:15:06;;;;;;;1.45;1.30;;;17.70;60.00;;;;;;6154468;23;20139;-83
2023/11/16 05:17:32;;;;;;;2.22;1.60;;;17.70;60.20;;;;;;6154317;23;20206;-83
2023/11/16 05:19:58;;;;;;;2.55;1.33;;;17.70;60.10;;;;;;6154183;23;20147;-83
2023/11/16 05:22:23;;;;;;;2.55;1.45;;;17.70;60.20;;;;;;6129799;23;20162;-83
2023/11/16 05:27:15;;;;;;;2.25;1.27;;;17.70;60.10;;;;;;6155804;23;20203;-84
2023/11/16 05:29:40;;;;;;;2.80;1.63;;;17.70;60.10;;;;;;6154253;23;20190;-84
2023/11/16 05:32:06;;;;;;;2.03;1.50;;;17.70;60.20;;;;;;6154613;23;20218;-84
2023/11/16 05:34:32;;;;;;;1.40;1.20;;;17.70;60.00;;;;;;6155666;23;20142;-84
2023/11/16 05:36:58;;;;;;;2.70;1.40;;;17.70;60.10;;;;;;6156087;23;20198;-83
2023/11/16 05:39:23;;;;;;;1.45;1.20;;;17.70;60.10;;;;;;6154392;23;20186;-83
2023/11/16 05:41:49;;;;;;;2.85;1.70;;;17.70;60.20;;;;;;6156656;23;20583;-84
2023/11/16 05:44:17;;;;;;;2.78;1.20;;;17.70;60.00;;;;;;6130208;23;20167;-84
2023/11/16 05:46:44;;;;;;;1.60;1.33;;;17.60;60.10;;;;;;6155333;23;20499;-84
2023/11/16 05:49:10;;;;;;;2.55;1.40;;;17.70;60.10;;;;;;6154834;23;20215;-84
2023/11/16 05:51:37;;;;;;;2.15;1.17;;;17.70;60.20;;;;;;6155426;23;20167;-84
2023/11/16 05:54:08;;;;;;;3.30;1.42;;;17.70;60.30;;;;;;6129187;23;20166;-85
2023/11/16 05:56:40;;;;;;;2.83;1.38;;;17.70;60.10;;;;;;6154581;23;20189;-84
2023/11/16 05:59:08;;;;;;;2.50;1.58;;;17.70;60.30;;;;;;6130375;23;20182;-84
2023/11/16 06:01:35;;;;;;;1.90;1.52;;;17.70;60.40;;;;;;6152380;23;20211;-84
2023/11/16 06:04:01;;;;;;;1.88;1.45;;;17.60;60.10;;;;;;6128827;23;20148;-84
2023/11/16 06:06:27;;;;;;;2.60;1.50;;;17.70;60.20;;;;;;6153497;23;20598;-84
2023/11/16 06:08:53;;;;;;;3.67;1.50;;;17.70;59.90;;;;;;6154883;23;20131;-83
2023/11/16 06:11:18;;;;;;;2.38;1.60;;;17.70;60.70;;;;;;6129517;23;20174;-83
2023/11/16 06:13:44;;;;;;;2.63;1.58;;;17.70;59.80;;;;;;6127983;23;20482;-83
2023/11/16 06:16:12;;;;;;;2.97;1.67;;;17.70;60.10;;;;;;6130237;23;20197;-84
2023/11/16 06:18:41;;;;;;;1.90;1.40;;;17.60;60.10;;;;;;6156399;23;20186;-83
2023/11/16 06:21:08;;;;;;;1.70;1.30;;;17.70;60.10;;;;;;6105364;23;20494;-84
2023/11/16 06:23:35;;;;;;;2.67;1.60;;;17.70;60.10;;;;;;6154032;23;20140;-84
2023/11/16 06:26:00;;;;;;;1.92;1.50;;;17.70;60.10;;;;;;6155524;23;20570;-84
2023/11/16 06:28:26;;;;;;;2.03;1.50;;;17.70;59.90;;;;;;6155009;23;20136;-83
2023/11/16 06:30:52;;;;;;;2.00;1.63;;;17.70;60.00;;;;;;6155474;23;20136;-84
2023/11/16 06:33:17;;;;;;;1.92;1.60;;;17.60;60.00;;;;;;6154922;23;20172;-84
2023/11/16 06:35:43;;;;;;;2.13;1.60;;;17.70;60.00;;;;;;6130716;23;20460;-84
2023/11/16 06:38:13;;;;;;;2.85;1.48;;;17.70;60.10;;;;;;6155231;23;20259;-83
2023/11/16 06:40:40;;;;;;;1.85;1.52;;;17.70;60.20;;;;;;6087348;23;20204;-84
2023/11/16 06:43:07;;;;;;;1.80;1.38;;;17.60;60.00;;;;;;6100971;23;20156;-84
2023/11/16 06:45:40;;;;;;;2.28;1.58;;;17.60;60.10;;;;;;6101652;23;20964;-84
2023/11/16 06:48:07;;;;;;;1.60;1.40;;;17.60;59.70;;;;;;6102950;23;20132;-84
2023/11/16 06:50:40;;;;;;;1.90;1.50;;;17.60;59.80;;;;;;6101139;23;20147;-84
2023/11/16 06:53:08;;;;;;;1.48;1.15;;;17.60;60.00;;;;;;6099241;23;20188;-84
2023/11/16 06:55:43;;;;;;;2.65;1.55;;;17.70;60.10;;;;;;6124373;23;20275;-84
2023/11/16 06:58:08;;;;;;;3.05;1.35;;;17.60;60.00;;;;;;6101197;23;20603;-84
2023/11/16 07:00:36;;;;;;;1.73;1.40;;;17.60;60.10;;;;;;6101143;23;20166;-84
2023/11/16 07:03:04;;;;;;;1.75;1.23;;;17.70;59.60;;;;;;6124645;23;20144;-85
2023/11/16 07:05:30;;;;;;;1.63;1.35;;;17.70;59.60;;;;;;6100647;23;20238;-84
2023/11/16 07:07:56;;;;;;;2.05;1.30;;;17.70;59.90;;;;;;6101419;23;20137;-83
2023/11/16 07:10:22;;;;;;;1.45;1.33;;;17.70;59.20;;;;;;6077094;23;20187;-84
2023/11/16 07:12:48;;;;;;;3.15;1.25;;;17.70;59.30;;;;;;6100579;23;20180;-84
2023/11/16 07:15:14;;;;;;;2.67;1.20;;;17.70;58.80;;;;;;6076977;23;20223;-84
2023/11/16 07:17:40;;;;;;;1.40;1.17;;;17.80;58.90;;;;;;6125322;23;20584;-84
2023/11/16 07:20:11;;;;;;;2.65;1.40;;;17.90;57.60;;;;;;6099956;23;20152;-84
2023/11/16 07:22:40;;;;;;;1.50;1.10;;;17.90;58.00;;;;;;6078425;23;20147;-84
2023/11/16 07:25:07;;;;;;;1.67;1.10;;;17.90;58.10;;;;;;6075638;23;20170;-84
2023/11/16 07:27:33;;;;;;;1.67;1.23;;;18.00;57.80;;;;;;6124807;23;20201;-84
2023/11/16 07:29:59;;;;;;;3.05;1.20;;;18.00;57.50;;;;;;6100480;23;20777;-84
2023/11/16 07:32:25;;;;;;;1.67;1.20;;;18.00;57.20;;;;;;6100383;23;20164;-84
2023/11/16 07:34:50;;;;;;;1.80;1.00;;;18.10;57.40;;;;;;6100145;23;20148;-84
2023/11/16 07:37:16;;;;;;;2.08;1.33;;;18.10;57.80;;;;;;6126742;23;20133;-83
2023/11/16 07:39:42;;;;;;;2.80;1.20;;;18.10;57.70;;;;;;6082345;23;20202;-83
2023/11/16 07:42:09;;;;;;;2.08;1.30;;;18.10;56.90;;;;;;6153207;23;20139;-83
2023/11/16 07:44:37;;;;;;;1.38;1.23;;;18.10;57.40;;;;;;6154058;23;20132;-82
2023/11/16 07:47:03;;;;;;;1.85;1.20;;;18.10;56.70;;;;;;6153518;23;20176;-82
2023/11/16 07:49:29;;;;;;;1.33;1.23;;;18.10;57.10;;;;;;6129587;23;20151;-83
2023/11/16 07:51:55;;;;;;;1.38;1.17;;;18.20;56.90;;;;;;6155649;23;20214;-83
2023/11/16 07:54:22;;;;;;;1.42;1.30;;;18.10;57.20;;;;;;6154809;23;20230;-82
2023/11/16 07:57:01;;;;;;;2.03;1.17;;;18.10;56.90;;;;;;6131311;23;20148;-82
2023/11/16 07:59:31;;;;;;;2.25;1.40;;;18.10;57.30;;;;;;6154580;23;20509;-82
2023/11/16 08:02:00;;;;;;;1.67;1.20;;;18.10;56.80;;;;;;6130981;23;20479;-83
2023/11/16 08:04:27;;;;;;;1.10;1.00;;;18.10;57.20;;;;;;6154168;23;20151;-84
2023/11/16 08:06:55;;;;;;;1.30;1.10;;;18.10;57.20;;;;;;6153362;23;20175;-84
2023/11/16 08:09:23;;;;;;;2.78;1.05;;;18.20;55.90;;;;;;6131958;23;20147;-83
2023/11/16 08:27:22;;;;;;;1.42;1.20;;;18.20;56.80;;;;;;6160023;23;20174;-83
2023/11/16 08:29:47;;;;;;;1.83;1.10;;;18.30;56.40;;;;;;6141051;23;20672;-82
2023/11/16 08:32:19;;;;;;;1.33;1.23;;;18.20;56.40;;;;;;6192966;23;20170;-82
2023/11/16 08:34:45;;;;;;;1.45;1.10;;;18.30;56.00;;;;;;6172676;23;20147;-83
2023/11/16 08:37:12;;;;;;;2.50;1.40;;;18.30;56.40;;;;;;6191214;23;20185;-83
2023/11/16 08:39:38;;;;;;;1.25;0.90;;;18.30;56.60;;;;;;6166850;23;20150;-83
2023/11/16 08:42:06;;;;;;;1.15;1.05;;;18.30;57.00;;;;;;6156810;23;21019;-83
2023/11/16 08:44:33;;;;;;;2.40;1.00;;;18.30;56.50;;;;;;6106153;23;20147;-83
2023/11/16 08:47:03;;;;;;;1.42;1.00;;;18.30;57.40;;;;;;6134211;23;20175;-83
2023/11/16 08:49:31;;;;;;;1.27;1.08;;;18.20;57.30;;;;;;6160616;23;20132;-83
2023/11/16 08:51:59;;;;;;;1.92;1.10;;;18.20;57.70;;;;;;6141525;23;20159;-83
2023/11/16 08:54:27;;;;;;;1.80;1.10;;;18.20;57.00;;;;;;6143460;23;20149;-83
2023/11/16 08:56:53;;;;;;;1.00;0.90;;;18.20;57.50;;;;;;6169127;23;20151;-83
2023/11/16 08:59:19;;;;;;;1.00;0.88;;;18.20;57.70;;;;;;6143833;23;20144;-83
2023/11/16 09:01:50;;;;;;;1.30;1.00;;;18.20;56.70;;;;;;6144842;23;20639;-84
2023/11/16 09:04:17;;;;;;;1.08;0.95;;;18.20;56.80;;;;;;6117196;23;20159;-83
2023/11/16 09:06:47;;;;;;;1.00;0.90;;;18.30;56.40;;;;;;6138543;23;20136;-83
2023/11/16 09:09:35;;;;;;;1.20;1.00;;;18.40;56.30;;;;;;6161670;23;20206;-83
2023/11/16 09:12:05;;;;;;;1.48;1.02;;;18.30;56.70;;;;;;6162363;23;20186;-83
2023/11/16 09:14:44;;;;;;;1.17;1.08;;;18.30;56.30;;;;;;6139774;23;20158;-83
2023/11/16 09:17:18;;;;;;;1.85;1.20;;;18.30;56.40;;;;;;6139586;23;20153;-83
2023/11/16 09:19:43;;;;;;;2.28;1.10;;;18.40;56.30;;;;;;6161179;23;20127;-83
2023/11/16 09:22:09;;;;;;;1.85;1.17;;;18.40;56.00;;;;;;6159550;23;20143;-83
2023/11/16 09:24:39;;;;;;;1.63;1.27;;;18.40;56.30;;;;;;6138974;23;20150;-83
2023/11/16 09:27:06;;;;;;;1.05;0.95;;;18.40;55.80;;;;;;6112956;23;20197;-83
2023/11/16 09:29:36;;;;;;;2.20;1.10;;;18.40;56.20;;;;;;6162159;23;20128;-83
2023/11/16 09:32:04;;;;;;;2.35;1.00;;;18.40;56.10;;;;;;6140188;23;20190;-83
2023/11/16 09:34:34;;;;;;;1.17;1.08;;;18.40;57.20;;;;;;6139662;23;20143;-83
2023/11/16 09:37:01;;;;;;;1.40;1.10;;;18.40;56.20;;;;;;6138427;23;20158;-83
2023/11/16 09:39:32;;;;;;;2.63;1.10;;;18.40;57.50;;;;;;6167676;23;20136;-83
2023/11/16 09:42:00;;;;;;;1.83;0.90;;;18.40;55.40;;;;;;6064465;23;20195;-83
2023/11/16 09:44:27;;;;;;;1.83;1.10;;;18.40;56.60;;;;;;6127935;23;20170;-84
2023/11/16 09:47:02;;;;;;;3.53;1.00;;;18.40;56.40;;;;;;6107207;23;20148;-84
2023/11/16 09:49:30;;;;;;;1.17;1.08;;;18.30;56.50;;;;;;6084032;23;20151;-83
2023/11/16 09:51:59;;;;;;;1.40;0.98;;;18.50;55.80;;;;;;6106020;23;20176;-83
2023/11/16 09:54:28;;;;;;;3.13;1.02;;;18.40;56.60;;;;;;6083175;23;20148;-82
2023/11/16 09:56:54;;;;;;;2.45;1.10;;;18.40;56.60;;;;;;6085767;23;20136;-83
2023/11/16 09:59:34;;;;;;;1.45;0.82;;;18.40;56.70;;;;;;6083209;23;20215;-83
2023/11/16 10:02:10;;;;;;;1.58;1.00;;;18.50;56.70;;;;;;6137674;23;20143;-83
2023/11/16 10:04:43;;;;;;;3.53;1.13;;;18.50;55.70;;;;;;6095664;23;20136;-83
2023/11/16 10:07:25;;;;;;;3.33;1.00;;;18.50;56.20;;;;;;6116492;23;20196;-82
2023/11/16 10:09:53;;;;;;;3.65;1.10;;;18.40;56.10;;;;;;6117261;23;20172;-83
2023/11/16 10:12:20;;;;;;;1.73;0.90;;;18.40;56.80;;;;;;6116300;23;20245;-82
2023/11/16 10:14:53;;;;;;;2.60;0.90;;;18.40;56.00;;;;;;6116317;23;20147;-82
2023/11/16 10:17:25;;;;;;;2.47;1.00;;;18.50;56.50;;;;;;6096209;23;20542;-83
2023/11/16 10:19:51;;;;;;;4.07;1.15;;;18.40;56.70;;;;;;6094189;23;20150;-83
2023/11/16 10:22:17;;;;;;;2.00;1.08;;;18.50;55.60;;;;;;6114952;23;20147;-82
2023/11/16 10:55:29;;;;;;;2.40;1.00;;;18.50;55.90;;;;;;6162966;23;20238;-82
2023/11/16 10:58:04;;;;;;;1.95;1.10;;;18.50;55.80;;;;;;6146539;23;20158;-84
2023/11/16 11:00:34;;;;;;;2.85;1.05;;;18.50;56.30;;;;;;6165622;23;20128;-83
2023/11/16 11:03:06;;;;;;;1.58;1.10;;;18.50;56.40;;;;;;6145348;23;20151;-83
2023/11/16 11:05:37;;;;;;;2.70;0.80;;;18.50;55.70;;;;;;6118428;23;20148;-83
2023/11/16 11:08:07;;;;;;;0.88;0.77;;;18.50;55.90;;;;;;6142169;23;20187;-83
2023/11/16 11:10:36;;;;;;;1.85;1.02;;;18.50;55.60;;;;;;6166480;23;20175;-82
2023/11/16 11:13:06;;;;;;;1.30;1.05;;;18.50;56.80;;;;;;6166287;23;20207;-83
2023/11/16 11:20:43;;;;;;;1.58;0.93;;;18.50;55.80;;;;;;6162603;23;20234;-83
2023/11/16 11:23:13;;;;;;;0.73;0.73;;;18.50;55.60;;;;;;6137497;23;20218;-83
2023/11/16 11:25:49;;;;;;;1.33;0.95;;;18.50;55.60;;;;;;6160408;23;20821;-84
2023/11/16 11:28:15;;;;;;;1.40;1.10;;;18.40;56.30;;;;;;6135447;23;20182;-83
2023/11/16 11:30:54;;;;;;;1.13;0.95;;;18.40;55.80;;;;;;6136196;23;20223;-83
2023/11/16 11:33:37;;;;;;;2.47;1.05;;;18.40;55.60;;;;;;6139237;23;20186;-83
2023/11/16 11:36:08;;;;;;;1.60;1.02;;;18.40;54.80;;;;;;6140318;23;20144;-83
2023/11/16 11:41:14;;;;;;;1.58;1.10;;;18.40;55.70;;;;;;6162595;23;20257;-83
2023/11/16 11:43:44;;;;;;;2.35;1.10;;;18.50;54.70;;;;;;6137815;23;20218;-84
2023/11/16 11:46:11;;;;;;;1.40;1.15;;;18.40;54.30;;;;;;6136324;23;20246;-83
2023/11/16 11:48:47;;;;;;;1.40;0.90;;;18.40;54.90;;;;;;6133397;23;20618;-83
2023/11/16 12:04:13;;;;;;;0.95;0.80;;;18.40;54.90;;;;;;6160341;23;20276;-84
2023/11/16 12:06:46;;;;;;;1.00;0.80;;;18.40;55.70;;;;;;6128978;23;20250;-83
2023/11/16 12:13:11;;;;;;;1.60;0.93;;;18.40;55.60;;;;;;6132004;23;20183;-83
2023/11/16 12:15:38;;;;;;;1.02;0.93;;;18.40;55.10;;;;;;6107240;23;20148;-82
2023/11/16 12:18:10;;;;;;;0.80;0.70;;;18.40;56.20;;;;;;6076794;23;20151;-83
2023/11/16 12:20:42;;;;;;;1.85;0.90;;;18.40;56.60;;;;;;6076590;23;20152;-83
2023/11/16 12:23:23;;;;;;;0.63;0.63;;;18.40;55.80;;;;;;6078970;23;20167;-84
2023/11/16 12:26:13;;;;;;;;;;;;;;;;;;;;;
2023/11/16 12:28:43;;;;;;;1.30;1.00;;;18.50;56.10;;;;;;6060090;23;20183;-81
2023/11/16 12:31:31;;;;;;;1.55;1.13;;;18.40;55.90;;;;;;6105642;23;20132;-83
2023/11/16 12:34:06;;;;;;;1.33;1.10;;;18.40;55.80;;;;;;6049865;23;20240;-84
2023/11/16 12:36:35;;;;;;;1.95;0.80;;;18.40;55.00;;;;;;6026120;23;20161;-84
2023/11/16 12:39:15;;;;;;;2.83;1.05;;;18.30;55.80;;;;;;6003544;23;20261;-83
2023/11/16 12:42:13;;;;;;;0.82;0.75;;;18.50;55.10;;;;;;6023751;23;20156;-83
2023/11/16 12:45:04;;;;;;;2.28;0.90;;;18.50;55.00;;;;;;6028688;23;20153;-82
2023/11/16 12:47:54;;;;;;;2.65;1.17;;;18.50;55.10;;;;;;6007929;23;20223;-84
2023/11/16 12:50:31;;;;;;;1.55;0.90;;;18.50;55.00;;;;;;6051382;23;20514;-84
2023/11/16 12:53:08;;;;;;;2.33;0.90;;;18.50;55.70;;;;;;5974165;23;20190;-83
2023/11/16 12:55:36;;;;;;;0.80;0.77;;;18.50;54.80;;;;;;5941333;24;20268;-83
2023/11/16 12:58:05;;;;;;;1.25;0.98;;;18.60;55.50;;;;;;5947870;24;20159;-84
2023/11/16 13:00:31;;;;;;;2.15;0.75;;;18.50;55.20;;;;;;5989839;24;20902;-84
2023/11/16 13:03:20;;;;;;;1.05;0.82;;;18.50;56.20;;;;;;5941249;24;20155;-85
2023/11/16 13:05:55;;;;;;;1.05;0.95;;;18.40;56.40;;;;;;5953142;23;20644;-82
2023/11/16 13:08:29;;;;;;;0.70;0.60;;;18.50;55.90;;;;;;5930197;23;20226;-85
2023/11/16 13:10:55;;;;;;;0.80;0.73;;;18.40;56.10;;;;;;5975163;23;20178;-82
2023/11/16 13:13:27;;;;;;;1.73;1.02;;;18.40;56.30;;;;;;5976501;23;20186;-84
2023/11/16 13:16:05;;;;;;;1.33;0.85;;;18.50;56.10;;;;;;5976009;23;20596;-84
2023/11/16 13:18:54;;;;;;;;;;;;;;;;;;;;;
2023/11/16 13:22:01;;;;;;;1.50;1.02;;;18.40;55.70;;;;;;5896132;24;20470;-83
2023/11/16 13:24:49;;;;;;;1.35;0.90;;;18.50;55.20;;;;;;5905081;24;20164;-83
2023/11/16 13:27:41;;;;;;;0.95;0.82;;;18.50;55.80;;;;;;5925621;24;20160;-83
2023/11/16 13:30:10;;;;;;;0.95;0.82;;;18.50;55.40;;;;;;5884139;24;20169;-83
2023/11/16 15:03:11;;;;;;;2.30;1.20;;;18.60;55.90;;;;;;6147707;23;20657;-86
2023/11/16 15:05:40;;;;;;;2.75;0.95;;;18.60;56.00;;;;;;6123649;23;20155;-85
2023/11/16 15:08:16;;;;;;;1.65;0.98;;;18.70;55.30;;;;;;6122109;23;20247;-83
2023/11/16 15:11:30;;;;;;;1.65;0.90;;;18.60;55.90;;;;;;6122809;23;20233;-85
2023/11/16 15:13:56;;;;;;;3.22;0.98;;;18.60;56.00;;;;;;6061185;23;20160;-84
2023/11/16 15:16:40;;;;;;;2.88;0.80;;;18.60;55.70;;;;;;6069417;23;20138;-84
2023/11/16 15:19:07;;;;;;;1.38;1.02;;;18.60;55.60;;;;;;6071091;23;20159;-84
2023/11/16 15:21:35;;;;;;;1.98;0.80;;;18.60;55.50;;;;;;6047850;23;20166;-82
2023/11/16 15:24:01;;;;;;;2.53;0.98;;;18.60;55.70;;;;;;6073841;23;20164;-84
2023/11/16 15:26:29;;;;;;;3.17;1.27;;;18.60;55.70;;;;;;6049943;23;20153;-84
2023/11/16 15:29:04;;;;;;;6.75;1.10;;;18.60;55.60;;;;;;6073697;23;20149;-85
2023/11/16 15:31:38;;;;;;;4.93;1.15;;;18.60;55.90;;;;;;6050127;23;20157;-83
2023/11/16 15:34:05;;;;;;;7.50;1.17;;;18.70;55.80;;;;;;6054625;23;20154;-83
2023/11/16 15:36:36;;;;;;;11.32;1.35;;;18.60;56.00;;;;;;6077057;23;20245;-85
2023/11/16 15:39:10;;;;;;;3.80;0.90;;;18.60;56.10;;;;;;6064281;23;20218;-84
2023/11/16 15:42:25;;;;;;;7.30;1.13;;;18.60;56.00;;;;;;6097597;23;20150;-83
2023/11/16 15:45:10;;;;;;;3.05;1.10;;;18.60;55.70;;;;;;6091711;23;20139;-84
2023/11/16 15:47:50;;;;;;;8.00;1.27;;;18.70;55.90;;;;;;6113314;23;20638;-85
2023/11/16 15:50:31;;;;;;;4.50;1.00;;;18.60;55.90;;;;;;5994216;24;20162;-83